Lancaster, Iowa
Current Conditions -  °F | °C
As of 4:15 PM on Sunday 23 Nov 2014 (Local Time) from KOOA Reporting Station
Light Rain Light Rain  
Wind Chill: 51°   Ceiling: 200
Heat Index: 51°   Visibility: 0.5mi
Dew Point: 51°   Wind: 0mph
Humidity: 97%   Direction: NA
Pressure: 29.33"   Gusts: NA
Location:  41.331°N, 92.1821°W
Report Text: KOOA 232215Z AUTO 00000KT 1/2SM -RA OVC002 11/10 A2933 RMK AO2 P0001 T01070103
Loading
Personal Weather Stations






























Interactive Weather Map New forecast layout! Learn more

10-Day Weather Forecast

Advertisements
Track Severe Weather on mobile